createdAt,value
2023-05-20T00:02:24.940Z,4.00
2023-05-20T00:04:52.941Z,4.40
2023-05-20T00:07:20.859Z,4.20
2023-05-20T00:09:48.740Z,4.20
2023-05-20T00:12:16.591Z,4.00
2023-05-20T00:14:44.612Z,4.60
2023-05-20T00:17:13.906Z,4.43
2023-05-20T00:19:41.843Z,4.03
2023-05-20T00:22:09.930Z,3.90
2023-05-20T00:24:37.875Z,3.93
2023-05-20T00:27:06.009Z,4.33
2023-05-20T00:29:35.124Z,3.67
2023-05-20T00:32:03.218Z,4.70
2023-05-20T00:34:32.592Z,4.03
2023-05-20T00:37:00.481Z,3.40
2023-05-20T00:39:30.308Z,3.70
2023-05-20T00:42:00.454Z,4.37
2023-05-20T00:44:28.357Z,4.20
2023-05-20T00:46:56.879Z,4.50
2023-05-20T00:49:24.806Z,5.30
2023-05-20T00:51:54.172Z,4.63
2023-05-20T00:54:23.259Z,4.67
2023-05-20T00:56:51.556Z,4.00
2023-05-20T00:59:19.986Z,4.50
2023-05-20T01:01:48.513Z,4.17
2023-05-20T01:04:16.605Z,4.30
2023-05-20T01:06:44.472Z,4.37
2023-05-20T01:09:14.795Z,4.30
2023-05-20T01:11:49.253Z,4.70
2023-05-20T01:14:20.138Z,4.03
2023-05-20T01:16:51.031Z,4.33
2023-05-20T01:19:29.813Z,4.43
2023-05-20T01:22:00.316Z,5.13
2023-05-20T01:24:29.588Z,4.80
2023-05-20T01:26:58.234Z,5.07
2023-05-20T01:29:26.462Z,4.63
2023-05-20T01:32:02.122Z,4.60
2023-05-20T01:34:31.384Z,4.53
2023-05-20T01:36:59.537Z,4.13
2023-05-20T01:39:30.798Z,4.73
2023-05-20T01:41:59.530Z,4.70
2023-05-20T01:44:28.237Z,4.37
2023-05-20T01:46:56.299Z,4.23
2023-05-20T01:49:24.341Z,4.30
2023-05-20T01:51:52.240Z,4.50
2023-05-20T01:54:20.162Z,4.60
2023-05-20T01:56:51.372Z,4.47
2023-05-20T01:59:19.348Z,4.50
2023-05-20T02:01:47.389Z,4.73
2023-05-20T02:04:19.283Z,4.63
2023-05-20T02:06:48.023Z,4.93
2023-05-20T02:09:17.876Z,4.53
2023-05-20T02:11:46.101Z,4.57
2023-05-20T02:14:15.512Z,4.50
2023-05-20T02:16:43.757Z,4.53
2023-05-20T02:19:14.444Z,4.47
2023-05-20T02:21:44.051Z,4.60
2023-05-20T02:24:11.995Z,4.70
2023-05-20T02:26:40.004Z,4.30
2023-05-20T02:29:09.578Z,4.37
2023-05-20T02:31:38.849Z,4.40
2023-05-20T02:34:06.780Z,4.40
2023-05-20T02:36:34.812Z,4.57
2023-05-20T02:39:03.571Z,4.37
2023-05-20T02:41:32.579Z,4.50
2023-05-20T02:44:00.755Z,4.27
2023-05-20T02:46:30.410Z,4.10
2023-05-20T02:48:59.730Z,4.57
2023-05-20T02:51:28.268Z,4.30
2023-05-20T02:53:56.196Z,4.67
2023-05-20T02:56:24.686Z,4.37
2023-05-20T02:58:52.668Z,4.60
2023-05-20T03:01:20.808Z,4.23
2023-05-20T03:03:49.022Z,4.70
2023-05-20T03:06:18.381Z,4.80
2023-05-20T03:08:46.496Z,5.30
2023-05-20T03:11:16.148Z,4.87
2023-05-20T03:13:44.039Z,4.87
2023-05-20T03:16:13.141Z,4.67
2023-05-20T03:18:41.239Z,5.10
2023-05-20T03:21:09.258Z,4.70
2023-05-20T03:23:38.528Z,4.70
2023-05-20T03:26:07.036Z,5.30
2023-05-20T03:28:35.152Z,4.70
2023-05-20T03:31:04.571Z,4.57
2023-05-20T03:33:36.047Z,5.00
2023-05-20T03:36:05.258Z,5.17
2023-05-20T03:38:33.586Z,4.63
2023-05-20T03:41:03.054Z,4.70
2023-05-20T03:43:31.919Z,4.80
2023-05-20T03:45:59.932Z,4.63
2023-05-20T03:48:27.846Z,4.70
2023-05-20T03:50:55.818Z,4.93
2023-05-20T03:53:23.764Z,4.80
2023-05-20T03:55:52.140Z,4.63
2023-05-20T03:58:22.328Z,4.83
2023-05-20T04:00:51.304Z,4.67
2023-05-20T04:03:19.446Z,5.13
2023-05-20T04:05:49.051Z,4.57
2023-05-20T04:08:22.084Z,5.17
2023-05-20T04:10:50.068Z,5.03
2023-05-20T04:13:18.005Z,4.90
2023-05-20T04:15:48.584Z,4.50
2023-05-20T04:18:17.051Z,6.80
2023-05-20T04:20:45.720Z,6.00
2023-05-20T04:23:15.500Z,4.97
2023-05-20T04:25:44.652Z,5.23
2023-05-20T04:28:14.153Z,5.63
2023-05-20T04:30:42.322Z,5.03
2023-05-20T04:33:13.140Z,5.27
2023-05-20T04:35:42.845Z,4.87
2023-05-20T04:38:12.205Z,4.60
2023-05-20T04:40:40.805Z,4.70
2023-05-20T04:43:10.540Z,5.20
2023-05-20T04:45:40.398Z,4.37
2023-05-20T04:48:09.584Z,4.90
2023-05-20T04:50:41.918Z,5.10
2023-05-20T04:53:09.855Z,4.90
2023-05-20T04:55:39.096Z,5.07
2023-05-20T04:58:08.257Z,4.40
2023-05-20T05:00:36.302Z,4.90
2023-05-20T05:03:04.728Z,5.20
2023-05-20T05:05:35.339Z,4.77
2023-05-20T05:08:04.942Z,5.23
2023-05-20T05:10:33.717Z,4.87
2023-05-20T05:13:01.681Z,5.13
2023-05-20T05:15:29.829Z,4.83
2023-05-20T05:17:58.019Z,4.63
2023-05-20T05:20:26.447Z,5.10
2023-05-20T05:22:54.438Z,4.57
2023-05-20T05:25:23.761Z,5.00
2023-05-20T05:27:51.723Z,4.87
2023-05-20T05:30:19.798Z,5.10
2023-05-20T05:32:48.337Z,5.17
2023-05-20T05:35:16.791Z,5.20
2023-05-20T05:37:44.722Z,4.90
2023-05-20T05:40:13.960Z,4.90
2023-05-20T05:42:43.313Z,4.63
2023-05-20T05:45:12.397Z,4.57
2023-05-20T05:47:40.687Z,4.43
2023-05-20T05:50:10.125Z,5.30
2023-05-20T05:52:38.639Z,5.23
2023-05-20T05:55:10.641Z,5.10
2023-05-20T05:57:38.604Z,5.37
2023-05-20T06:00:10.790Z,4.57
2023-05-20T06:02:48.187Z,4.53
2023-05-20T06:05:30.188Z,5.43
2023-05-20T06:07:58.758Z,4.63
2023-05-20T06:10:27.252Z,5.20
2023-05-20T06:12:56.409Z,5.13
2023-05-20T06:15:26.353Z,5.23
2023-05-20T06:17:54.275Z,4.87
2023-05-20T06:20:22.345Z,5.20
2023-05-20T06:22:50.348Z,5.23
2023-05-20T06:25:18.726Z,5.17
2023-05-20T06:27:47.409Z,5.20
2023-05-20T06:30:18.927Z,5.37
2023-05-20T06:32:48.314Z,5.70
2023-05-20T06:35:17.617Z,5.30
2023-05-20T06:37:45.558Z,5.27
2023-05-20T06:40:14.120Z,5.30
2023-05-20T06:42:44.225Z,5.10
2023-05-20T06:45:13.914Z,5.33
2023-05-20T06:47:53.353Z,5.37
2023-05-20T06:50:21.619Z,5.33
2023-05-20T06:52:49.850Z,5.73
2023-05-20T06:55:18.096Z,5.13
2023-05-20T06:57:46.003Z,5.60
2023-05-20T07:00:15.284Z,5.83
2023-05-20T07:02:45.050Z,5.43
2023-05-20T07:05:16.919Z,5.47
2023-05-20T07:07:44.936Z,5.67
2023-05-20T07:10:13.029Z,5.70
2023-05-20T07:12:42.174Z,5.40
2023-05-20T07:15:10.996Z,5.63
2023-05-20T07:17:40.008Z,5.43
2023-05-20T07:20:09.187Z,5.70
2023-05-20T07:22:38.748Z,5.70
2023-05-20T07:25:21.805Z,5.73
2023-05-20T07:27:50.793Z,6.33
2023-05-20T07:30:19.950Z,6.10
2023-05-20T07:33:07.794Z,6.20
2023-05-20T07:35:36.824Z,5.63
2023-05-20T07:38:06.869Z,6.40
2023-05-20T07:40:36.865Z,5.10
2023-05-20T07:43:05.070Z,5.57
2023-05-20T07:45:33.384Z,5.87
2023-05-20T07:48:03.016Z,6.10
2023-05-20T07:50:31.535Z,6.03
2023-05-20T07:52:59.488Z,5.67
2023-05-20T07:55:31.763Z,5.77
2023-05-20T07:58:00.934Z,6.23
2023-05-20T08:00:30.696Z,5.10
2023-05-20T08:03:03.958Z,5.87
2023-05-20T08:05:43.100Z,5.77
2023-05-20T08:08:11.573Z,5.77
2023-05-20T08:10:55.417Z,5.80
2023-05-20T08:13:26.764Z,5.90
2023-05-20T08:15:55.211Z,5.30
2023-05-20T08:18:23.141Z,5.40
2023-05-20T08:20:51.308Z,5.77
2023-05-20T08:23:19.288Z,5.90
2023-05-20T08:25:48.312Z,5.50
2023-05-20T08:28:19.133Z,5.60
2023-05-20T08:30:48.560Z,5.30
2023-05-20T08:33:16.835Z,5.73
2023-05-20T08:35:44.807Z,4.93
2023-05-20T08:38:12.661Z,4.97
2023-05-20T08:40:40.605Z,4.97
2023-05-20T08:43:08.657Z,5.27
2023-05-20T08:45:39.356Z,5.17
2023-05-20T08:48:12.897Z,5.13
2023-05-20T08:50:40.876Z,5.27
2023-05-20T08:53:09.038Z,4.63
2023-05-20T08:55:43.059Z,5.07
2023-05-20T08:58:11.281Z,5.20
2023-05-20T09:00:42.030Z,4.60
2023-05-20T09:03:10.077Z,5.00
2023-05-20T09:05:38.271Z,5.00
2023-05-20T09:08:07.937Z,4.70
2023-05-20T09:10:37.152Z,5.20
2023-05-20T09:13:06.185Z,4.80
2023-05-20T09:15:35.815Z,4.70
2023-05-20T09:18:08.010Z,4.43
2023-05-20T09:20:38.155Z,4.97
2023-05-20T09:23:08.906Z,4.57
2023-05-20T09:25:38.280Z,5.03
2023-05-20T09:28:07.551Z,5.10
2023-05-20T09:30:35.662Z,4.67
2023-05-20T09:33:07.853Z,5.00
2023-05-20T09:35:38.095Z,5.43
2023-05-20T09:38:07.590Z,4.73
2023-05-20T09:40:37.727Z,4.93
2023-05-20T09:43:07.276Z,5.30
2023-05-20T09:45:36.687Z,4.77
2023-05-20T09:48:09.225Z,5.13
2023-05-20T09:50:37.867Z,4.60
2023-05-20T09:53:06.509Z,4.80
2023-05-20T09:55:34.717Z,4.87
2023-05-20T09:58:04.131Z,4.87
2023-05-20T10:00:33.037Z,5.10
2023-05-20T10:03:02.026Z,5.13
2023-05-20T10:05:34.335Z,5.30
2023-05-20T10:08:37.279Z,4.90
2023-05-20T10:11:14.869Z,4.63
2023-05-20T10:13:53.627Z,5.17
2023-05-20T10:16:31.110Z,5.37
2023-05-20T10:19:06.590Z,4.97
2023-05-20T10:21:36.439Z,5.23
2023-05-20T10:24:08.453Z,4.60
2023-05-20T10:26:37.656Z,4.70
2023-05-20T10:29:16.577Z,5.50
2023-05-20T10:31:50.631Z,4.50
2023-05-20T10:34:19.989Z,4.37
2023-05-20T10:36:59.625Z,4.80
2023-05-20T10:39:28.946Z,5.20
2023-05-20T10:42:08.239Z,4.80
2023-05-20T10:44:43.552Z,4.93
2023-05-20T10:49:45.290Z,5.07
2023-05-20T10:52:15.813Z,4.67
2023-05-20T10:54:49.397Z,4.30
2023-05-20T10:57:20.485Z,3.77
2023-05-20T10:59:49.364Z,4.13
2023-05-20T11:02:18.956Z,4.53
2023-05-20T11:04:48.024Z,3.93
2023-05-20T11:07:28.402Z,4.33
2023-05-20T11:09:56.364Z,3.80
2023-05-20T11:12:25.435Z,4.73
2023-05-20T11:14:53.529Z,4.53
2023-05-20T11:17:21.749Z,4.87
2023-05-20T11:19:50.043Z,5.40
2023-05-20T11:22:17.922Z,4.80
2023-05-20T11:24:47.577Z,4.70
2023-05-20T11:27:15.659Z,4.70
2023-05-20T11:29:43.829Z,5.30
2023-05-20T11:32:11.820Z,5.03
2023-05-20T11:34:40.714Z,4.80
2023-05-20T11:37:09.047Z,4.13
2023-05-20T11:39:38.095Z,4.17
2023-05-20T11:42:07.565Z,4.10
2023-05-20T11:44:35.418Z,4.30
2023-05-20T11:47:04.580Z,4.37
2023-05-20T11:49:40.844Z,4.13
2023-05-20T11:52:11.760Z,4.50
2023-05-20T11:54:40.221Z,3.93
2023-05-20T11:57:09.510Z,3.67
2023-05-20T11:59:37.645Z,4.37
2023-05-20T12:02:05.584Z,4.27
2023-05-20T12:04:33.484Z,4.30
2023-05-20T12:07:01.891Z,4.50
2023-05-20T12:09:29.770Z,4.63
2023-05-20T12:11:57.686Z,4.50
2023-05-20T12:14:27.052Z,5.30
2023-05-20T12:16:55.170Z,4.27
2023-05-20T12:19:23.121Z,3.97
2023-05-20T12:21:52.717Z,4.00
2023-05-20T12:24:20.608Z,4.20
2023-05-20T12:26:48.872Z,4.40
2023-05-20T12:29:16.777Z,4.70
2023-05-20T12:31:46.046Z,4.00
2023-05-20T12:34:14.014Z,4.43
2023-05-20T12:36:42.385Z,4.13
2023-05-20T12:39:11.066Z,4.30
2023-05-20T12:41:39.100Z,3.87
2023-05-20T12:44:06.982Z,4.00
2023-05-20T12:46:35.099Z,3.90
2023-05-20T12:49:04.696Z,4.37
2023-05-20T12:51:32.588Z,3.90
2023-05-20T12:54:00.576Z,4.13
2023-05-20T12:56:28.537Z,3.80
2023-05-20T12:58:56.496Z,3.70
2023-05-20T13:01:24.493Z,4.23
2023-05-20T13:03:53.430Z,4.43
2023-05-20T13:06:22.694Z,4.40
2023-05-20T13:08:50.822Z,4.27
2023-05-20T13:11:18.699Z,3.97
2023-05-20T13:13:46.605Z,4.50
2023-05-20T13:16:16.668Z,4.00
2023-05-20T13:18:44.706Z,4.03
2023-05-20T13:21:12.607Z,4.00
2023-05-20T13:23:42.803Z,3.83
2023-05-20T13:26:11.073Z,3.80
2023-05-20T13:28:38.927Z,3.83
2023-05-20T13:31:07.747Z,4.40
2023-05-20T13:33:35.766Z,4.03
2023-05-20T13:36:03.908Z,4.13
2023-05-20T13:38:32.684Z,3.90
2023-05-20T13:41:03.171Z,3.87
2023-05-20T13:43:33.225Z,3.90
2023-05-20T13:46:01.306Z,4.00
2023-05-20T13:48:29.410Z,4.23
2023-05-20T13:50:59.723Z,3.67
2023-05-20T13:53:27.666Z,4.10
2023-05-20T13:55:55.741Z,4.37
2023-05-20T13:58:25.003Z,4.37
2023-05-20T14:00:53.734Z,3.80
2023-05-20T14:03:22.056Z,3.50
2023-05-20T14:05:50.026Z,3.40
2023-05-20T14:08:17.914Z,3.63
2023-05-20T14:10:45.764Z,4.50
2023-05-20T14:13:13.632Z,3.87
2023-05-20T14:15:43.735Z,3.43
2023-05-20T14:18:11.770Z,4.00
2023-05-20T14:20:39.770Z,3.60
2023-05-20T14:23:07.660Z,3.47
2023-05-20T14:25:36.489Z,3.20
2023-05-20T14:28:04.444Z,2.97
2023-05-20T14:30:32.597Z,3.40
2023-05-20T14:33:02.230Z,3.90
2023-05-20T14:35:30.215Z,3.33
2023-05-20T14:37:58.175Z,3.50
2023-05-20T14:40:26.078Z,3.50
2023-05-20T14:42:53.972Z,3.43
2023-05-20T14:45:21.847Z,3.20
2023-05-20T14:47:49.823Z,3.97
2023-05-20T14:50:19.200Z,3.87
2023-05-20T14:52:47.064Z,3.20
2023-05-20T14:55:14.970Z,3.77
2023-05-20T14:57:43.051Z,3.50
2023-05-20T15:00:14.678Z,3.27
2023-05-20T15:02:42.713Z,3.73
2023-05-20T15:05:11.972Z,3.40
2023-05-20T15:07:41.581Z,3.47
2023-05-20T15:10:10.085Z,3.20
2023-05-20T15:12:37.954Z,3.70
2023-05-20T15:15:06.838Z,4.77
2023-05-20T15:17:34.755Z,3.73
2023-05-20T15:20:02.981Z,4.10
2023-05-20T15:22:30.808Z,3.33
2023-05-20T15:25:00.043Z,17.77
2023-05-20T15:27:29.633Z,27.33
2023-05-20T15:29:57.582Z,6.37
2023-05-20T15:32:25.702Z,7.90
2023-05-20T15:34:53.673Z,4.53
2023-05-20T15:37:22.056Z,8.13
2023-05-20T15:39:50.001Z,6.10
2023-05-20T15:42:19.328Z,4.70
2023-05-20T15:44:47.350Z,4.40
2023-05-20T15:47:15.212Z,3.60
2023-05-20T15:49:43.204Z,3.57
2023-05-20T15:52:11.124Z,3.60
2023-05-20T15:54:39.038Z,4.17
2023-05-20T15:57:07.659Z,10.97
2023-05-20T15:59:37.007Z,4.60
2023-05-20T16:02:04.987Z,5.37
2023-05-20T16:04:33.639Z,3.67
2023-05-20T16:07:01.888Z,3.60
2023-05-20T16:09:29.887Z,3.80
2023-05-20T16:11:57.843Z,4.37
2023-05-20T16:14:25.862Z,5.40
2023-05-20T16:16:55.166Z,17.37
2023-05-20T16:19:23.260Z,71.70
2023-05-20T16:21:51.367Z,39.47
2023-05-20T16:24:19.271Z,8.13
2023-05-20T16:26:47.171Z,12.90
2023-05-20T16:29:16.645Z,4.90
2023-05-20T16:31:46.607Z,7.63
2023-05-20T16:34:16.863Z,8.10
2023-05-20T16:36:46.302Z,7.60
2023-05-20T16:39:14.681Z,4.90
2023-05-20T16:41:43.226Z,3.93
2023-05-20T16:44:11.487Z,12.93
2023-05-20T16:46:39.416Z,4.10
2023-05-20T16:49:07.418Z,3.93
2023-05-20T16:51:36.722Z,6.40
2023-05-20T16:54:04.972Z,5.70
2023-05-20T16:56:33.402Z,10.03
2023-05-20T16:59:01.290Z,5.20
2023-05-20T17:01:29.639Z,4.00
2023-05-20T17:03:57.685Z,3.53
2023-05-20T17:06:25.632Z,3.43
2023-05-20T17:08:54.957Z,3.87
2023-05-20T17:11:22.838Z,3.83
2023-05-20T17:13:50.715Z,3.63
2023-05-20T17:16:18.850Z,3.50
2023-05-20T17:18:48.312Z,5.60
2023-05-20T17:21:20.205Z,4.43
2023-05-20T17:23:48.138Z,6.73
2023-05-20T17:26:17.605Z,5.43
2023-05-20T17:28:45.531Z,4.97
2023-05-20T17:31:13.399Z,5.00
2023-05-20T17:33:41.329Z,5.40
2023-05-20T17:36:09.258Z,5.80
2023-05-20T17:38:37.170Z,6.43
2023-05-20T17:41:05.231Z,5.63
2023-05-20T17:43:34.737Z,6.57
2023-05-20T17:46:02.686Z,6.60
2023-05-20T17:48:30.595Z,5.70
2023-05-20T17:50:59.725Z,5.77
2023-05-20T17:53:27.543Z,6.30
2023-05-20T17:55:55.587Z,6.13
2023-05-20T17:58:25.144Z,5.93
2023-05-20T18:00:54.616Z,6.17
2023-05-20T18:03:23.096Z,6.10
2023-05-20T18:05:52.290Z,7.03
2023-05-20T18:08:21.732Z,6.97
2023-05-20T18:10:49.630Z,6.97
2023-05-20T18:13:17.490Z,7.37
2023-05-20T18:15:45.666Z,6.43
2023-05-20T18:18:15.190Z,5.87
2023-05-20T18:20:43.114Z,6.73
2023-05-20T18:23:11.515Z,6.60
2023-05-20T18:25:41.753Z,7.03
2023-05-20T18:28:11.213Z,6.90
2023-05-20T18:30:39.071Z,6.60
2023-05-20T18:33:07.375Z,6.40
2023-05-20T18:35:36.726Z,6.47
2023-05-20T18:38:04.682Z,6.67
2023-05-20T18:40:32.629Z,7.37
2023-05-20T18:43:00.532Z,10.73
2023-05-20T18:45:28.482Z,12.27
2023-05-20T18:47:59.253Z,8.13
2023-05-20T18:50:27.583Z,7.63
2023-05-20T18:52:56.964Z,7.27
2023-05-20T18:55:24.928Z,7.57
2023-05-20T18:57:52.920Z,8.37
2023-05-20T19:00:21.216Z,8.17
2023-05-20T19:02:49.166Z,7.80
2023-05-20T19:05:17.076Z,7.27
2023-05-20T19:07:45.020Z,7.43
2023-05-20T19:10:15.183Z,7.03
2023-05-20T19:12:43.698Z,7.73
2023-05-20T19:15:12.840Z,7.73
2023-05-20T19:17:40.805Z,8.03
2023-05-20T19:20:10.515Z,8.47
2023-05-20T19:22:38.731Z,8.07
2023-05-20T19:25:07.707Z,7.70
2023-05-20T19:27:36.970Z,8.50
2023-05-20T19:30:05.158Z,7.60
2023-05-20T19:32:33.238Z,8.00
2023-05-20T19:35:01.293Z,9.50
2023-05-20T19:37:29.287Z,10.10
2023-05-20T19:39:57.223Z,9.07
2023-05-20T19:42:25.163Z,8.67
2023-05-20T19:44:54.536Z,9.07
2023-05-20T19:47:22.795Z,8.97
2023-05-20T19:49:50.946Z,8.37
2023-05-20T19:52:19.971Z,8.77
2023-05-20T19:54:48.902Z,9.23
2023-05-20T19:57:16.983Z,8.60
2023-05-20T19:59:44.969Z,8.23
2023-05-20T20:02:14.827Z,9.53
2023-05-20T20:04:44.087Z,8.17
2023-05-20T20:07:12.237Z,8.87
2023-05-20T20:09:40.723Z,8.50
2023-05-20T20:12:09.291Z,9.33
2023-05-20T20:14:38.093Z,8.87
2023-05-20T20:17:06.241Z,8.23
2023-05-20T20:19:35.565Z,9.47
2023-05-20T20:22:03.670Z,9.60
2023-05-20T20:24:31.642Z,8.20
2023-05-20T20:26:59.719Z,8.30
2023-05-20T20:29:27.597Z,9.63
2023-05-20T20:31:56.041Z,8.73
2023-05-20T20:34:24.049Z,9.07
2023-05-20T20:36:54.797Z,9.50
2023-05-20T20:39:25.071Z,9.77
2023-05-20T20:41:54.491Z,8.83
2023-05-20T20:44:22.737Z,9.33
2023-05-20T20:46:51.504Z,8.40
2023-05-20T20:49:19.904Z,9.43
2023-05-20T20:51:48.558Z,8.60
2023-05-20T20:54:17.895Z,8.83
2023-05-20T20:56:47.144Z,8.83
2023-05-20T20:59:16.008Z,8.90
2023-05-20T21:01:45.075Z,8.83
2023-05-20T21:04:13.925Z,9.37
2023-05-20T21:06:45.835Z,9.40
2023-05-20T21:09:14.149Z,9.00
2023-05-20T21:11:45.186Z,9.10
2023-05-20T21:14:14.027Z,8.80
2023-05-20T21:16:43.139Z,8.83
2023-05-20T21:19:11.178Z,9.23
2023-05-20T21:21:39.655Z,8.53
2023-05-20T21:24:07.853Z,8.73
2023-05-20T21:26:35.803Z,9.47
2023-05-20T21:29:05.966Z,8.97
2023-05-20T21:31:33.948Z,9.47
2023-05-20T21:34:02.111Z,8.90
2023-05-20T21:36:30.686Z,9.07
2023-05-20T21:38:58.688Z,9.13
2023-05-20T21:41:27.244Z,9.10
2023-05-20T21:43:55.163Z,9.73
2023-05-20T21:46:24.434Z,9.77
2023-05-20T21:48:52.376Z,9.57
2023-05-20T21:51:20.260Z,9.57
2023-05-20T21:53:48.222Z,9.37
2023-05-20T21:56:16.196Z,8.93
2023-05-20T21:58:44.088Z,8.90
2023-05-20T22:01:12.082Z,8.90
2023-05-20T22:03:47.952Z,9.70
2023-05-20T22:06:17.616Z,9.60
2023-05-20T22:08:45.480Z,9.90
2023-05-20T22:11:13.362Z,9.57
2023-05-20T22:13:41.522Z,9.57
2023-05-20T22:16:09.998Z,10.00
2023-05-20T22:18:38.504Z,9.33
2023-05-20T22:21:07.881Z,10.40
2023-05-20T22:23:35.966Z,9.37
2023-05-20T22:26:04.896Z,9.83
2023-05-20T22:28:32.841Z,10.33
2023-05-20T22:31:00.690Z,10.00
2023-05-20T22:33:28.648Z,9.77
2023-05-20T22:35:58.086Z,10.17
2023-05-20T22:38:29.187Z,10.73
2023-05-20T22:40:57.032Z,10.30
2023-05-20T22:43:24.965Z,10.00
2023-05-20T22:45:52.889Z,10.67
2023-05-20T22:48:23.006Z,11.20
2023-05-20T22:50:51.188Z,10.83
2023-05-20T22:53:19.082Z,10.97
2023-05-20T22:55:48.440Z,12.03
2023-05-20T22:58:16.479Z,10.83
2023-05-20T23:00:44.979Z,10.87
2023-05-20T23:03:13.330Z,11.10
2023-05-20T23:05:41.236Z,11.20
2023-05-20T23:08:09.119Z,11.53
2023-05-20T23:10:36.980Z,11.77
2023-05-20T23:13:06.430Z,10.97
2023-05-20T23:15:34.472Z,11.77
2023-05-20T23:18:02.626Z,11.93
2023-05-20T23:20:30.545Z,12.03
2023-05-20T23:23:00.128Z,12.53
2023-05-20T23:25:31.483Z,12.30
2023-05-20T23:27:59.577Z,12.17
2023-05-20T23:30:29.531Z,12.70
2023-05-20T23:32:57.873Z,12.60
2023-05-20T23:35:25.783Z,12.37
2023-05-20T23:37:53.664Z,12.97
2023-05-20T23:40:21.609Z,13.27
2023-05-20T23:42:49.444Z,11.93
2023-05-20T23:45:17.408Z,13.33
2023-05-20T23:47:46.913Z,12.53
2023-05-20T23:50:14.935Z,12.80
2023-05-20T23:52:42.790Z,13.43
2023-05-20T23:55:14.271Z,12.90
2023-05-20T23:57:42.284Z,12.20
